ZB2YN-13 Weather Reports


Display with metric or nautical units.
time (UTC)temp
F
wind
direction
speed
MPH
gust
MPH
rain 1hr
in
rain 24hr
in
rain mn
in
humidity
%
barometer
mb
20240714220005 78 116 1.0 2.0 0.00 0.00 0.00 36 1026.6
20240714210005 75 192 2.0 6.0 0.00 0.00 0.00 63 1026.5
20240714200006 76 160 2.0 6.0 0.00 0.00 0.00 60 1025.7
20240714190006 78 192 3.0 7.0 0.00 0.00 0.00 55 1025.5
20240714180005 82 173 4.0 7.0 0.00 0.00 0.00 49 1025.4
20240714170005 83 218 4.0 8.0 0.00 0.00 0.00 45 1025.4
20240714160005 90 192 3.0 7.0 0.00 0.00 0.00 29 1025.4
20240714150005 86 161 3.0 6.0 0.00 0.00 0.00 29 1026.0
20240714140006 84 189 4.0 11.0 0.00 0.00 0.00 37 1026.6
20240714130005 84 167 5.0 10.0 0.00 0.00 0.00 39 1027.1
20240714120005 83 200 3.0 7.0 0.00 0.00 0.00 41 1027.7
20240714110005 80 182 3.0 7.0 0.00 0.00 0.00 52 1028.0
20240714100005 80 218 1.0 3.0 0.00 0.00 0.00 50 1028.0
20240714090006 78 169 1.0 2.0 0.00 0.00 0.00 50 1027.8
20240714080006 73 99 1.0 3.0 0.00 0.00 0.00 61 1027.8
20240714070005 67 156 1.0 3.0 0.00 0.00 0.00 76 1027.7
20240714060005 67 293 0.0 1.0 0.00 0.00 0.00 78 1026.8
20240714050005 67 92 1.0 2.0 0.00 0.00 0.00 77 1026.5
20240714040006 69 138 3.0 4.0 0.00 0.00 0.00 69 1026.2
20240714030005 69 340 1.0 2.0 0.00 0.00 0.00 67 1025.9
20240714020005 71 64 1.0 2.0 0.00 0.00 0.00 60 1025.6
20240714010005 71 123 2.0 3.0 0.00 0.00 0.00 62 1025.6
20240714000005 72 19 3.0 6.0 0.00 0.00 0.00 64 1025.9
20240713230005 73 155 1.0 3.0 0.00 0.00 0.00 59 1025.8